createdAt,value
2022-07-25T06:31:00.441Z,3.10
2022-07-25T06:33:37.766Z,2.83
2022-07-25T06:36:14.867Z,3.10
2022-07-25T06:38:52.019Z,2.80
2022-07-25T06:41:28.687Z,2.70
2022-07-25T06:44:06.100Z,2.60
2022-07-25T06:46:45.710Z,2.58
2022-07-25T06:49:22.809Z,3.00
2022-07-25T06:51:59.483Z,2.70
2022-07-25T06:54:36.702Z,2.80
2022-07-25T06:57:13.556Z,2.40
2022-07-25T06:59:50.783Z,2.70
2022-07-25T07:02:30.530Z,2.50
2022-07-25T07:05:09.009Z,2.55
2022-07-25T07:07:47.980Z,2.92
2022-07-25T07:10:26.736Z,2.67
2022-07-25T07:13:11.277Z,2.70
2022-07-25T07:15:51.424Z,2.78
2022-07-25T07:18:32.102Z,2.88
2022-07-25T07:21:11.163Z,2.58
2022-07-25T07:23:58.358Z,2.67
2022-07-25T07:26:36.297Z,2.70
2022-07-25T07:29:13.584Z,2.78
2022-07-25T07:31:50.843Z,2.80
2022-07-25T07:34:30.297Z,2.53
2022-07-25T07:37:07.398Z,2.67
2022-07-25T07:39:44.335Z,2.10
2022-07-25T07:42:21.457Z,2.63
2022-07-25T07:44:58.349Z,2.40
2022-07-25T07:47:35.336Z,2.42
2022-07-25T07:50:14.996Z,2.80
2022-07-25T07:52:53.410Z,3.10
2022-07-25T07:55:42.836Z,2.60
2022-07-25T07:58:22.486Z,2.70
2022-07-25T08:00:59.341Z,2.47
2022-07-25T08:03:36.543Z,2.67
2022-07-25T08:06:15.939Z,2.60
2022-07-25T08:08:53.079Z,2.30
2022-07-25T08:11:30.138Z,2.53
2022-07-25T08:14:07.805Z,2.47
2022-07-25T08:16:44.764Z,2.33
2022-07-25T08:19:21.820Z,2.63
2022-07-25T08:22:01.192Z,2.40
2022-07-25T08:24:38.362Z,2.40
2022-07-25T08:27:15.085Z,2.30
2022-07-25T08:29:53.505Z,2.90
2022-07-25T08:32:30.367Z,2.60
2022-07-25T08:35:11.369Z,2.85
2022-07-25T08:37:52.117Z,2.95
2022-07-25T08:40:31.611Z,3.03
2022-07-25T08:43:09.214Z,2.90
2022-07-25T08:45:50.261Z,3.15
2022-07-25T08:48:30.117Z,3.10
2022-07-25T08:51:07.801Z,3.22
2022-07-25T08:53:48.512Z,2.78
2022-07-25T08:56:25.981Z,3.35
2022-07-25T08:59:03.752Z,3.05
2022-07-25T09:01:43.970Z,3.05
2022-07-25T09:04:21.555Z,3.33
2022-07-25T09:06:58.750Z,3.08
2022-07-25T09:09:42.093Z,3.45
2022-07-25T09:12:28.462Z,3.08
2022-07-25T09:15:05.230Z,3.10
2022-07-25T09:17:54.732Z,3.40
2022-07-25T09:20:43.781Z,3.22
2022-07-25T09:23:38.380Z,3.58
2022-07-25T09:26:19.101Z,3.33
2022-07-25T09:28:57.322Z,3.15
2022-07-25T09:31:41.017Z,2.80
2022-07-25T09:34:34.334Z,2.83
2022-07-25T09:39:54.025Z,3.00
2022-07-25T09:42:36.731Z,3.05
2022-07-25T09:45:16.574Z,3.05
2022-07-25T09:47:59.210Z,2.88
2022-07-25T09:50:37.287Z,3.20
2022-07-25T09:53:15.219Z,3.15
2022-07-25T09:55:53.725Z,2.72
2022-07-25T09:58:33.915Z,2.85
2022-07-25T10:01:11.979Z,2.83
2022-07-25T10:03:55.625Z,2.80
2022-07-25T10:06:43.266Z,2.95
2022-07-25T10:09:20.639Z,3.17
2022-07-25T10:12:12.545Z,3.20
2022-07-25T10:15:11.782Z,2.95
2022-07-25T10:17:50.696Z,2.90
2022-07-25T10:20:32.685Z,3.08
2022-07-25T10:23:22.458Z,2.55
2022-07-25T10:26:10.555Z,3.33
2022-07-25T10:28:50.085Z,3.35
2022-07-25T10:31:38.846Z,3.53
2022-07-25T10:34:16.988Z,3.05
2022-07-25T10:36:58.896Z,3.10
2022-07-25T10:39:45.021Z,3.30
2022-07-25T10:42:27.106Z,3.10
2022-07-25T10:45:09.822Z,3.30
2022-07-25T10:47:57.866Z,3.00
2022-07-25T10:50:54.842Z,3.05
2022-07-25T10:53:40.117Z,3.42
2022-07-25T10:56:20.352Z,2.85
2022-07-25T10:58:59.087Z,3.00
2022-07-25T11:01:38.838Z,2.90
2022-07-25T11:04:20.917Z,3.10
2022-07-25T11:06:58.286Z,3.22
2022-07-25T11:09:35.039Z,3.10
2022-07-25T11:12:17.472Z,3.10
2022-07-25T11:14:54.307Z,3.08
2022-07-25T11:17:31.340Z,2.80
2022-07-25T11:20:13.853Z,3.03
2022-07-25T11:22:56.968Z,3.20
2022-07-25T11:25:33.900Z,2.90
2022-07-25T11:28:10.977Z,3.10
2022-07-25T11:30:48.006Z,2.80
2022-07-25T11:33:25.105Z,3.03
2022-07-25T11:36:05.159Z,3.10
2022-07-25T11:38:43.531Z,2.92
2022-07-25T11:41:30.876Z,3.13
2022-07-25T11:44:08.398Z,3.15
2022-07-25T11:46:48.358Z,2.90
2022-07-25T11:49:25.497Z,3.00
2022-07-25T11:52:07.585Z,3.13
2022-07-25T11:57:33.977Z,2.67
2022-07-25T12:00:19.551Z,2.60
2022-07-25T12:02:56.697Z,3.10
2022-07-25T12:05:37.117Z,2.70
2022-07-25T12:08:18.227Z,2.60
2022-07-25T12:10:56.157Z,2.80
2022-07-25T12:13:34.446Z,3.10
2022-07-25T12:16:12.702Z,2.70
2022-07-25T12:18:49.518Z,2.70
2022-07-25T12:21:27.009Z,2.90
2022-07-25T12:24:06.761Z,2.50
2022-07-25T12:26:43.857Z,2.50
2022-07-25T12:29:20.548Z,2.60
2022-07-25T12:31:57.599Z,2.90
2022-07-25T12:34:35.005Z,2.30
2022-07-25T12:37:12.147Z,2.58
2022-07-25T12:39:51.652Z,2.45
2022-07-25T12:42:29.247Z,2.65
2022-07-25T12:45:06.147Z,2.65
2022-07-25T12:47:43.317Z,2.50
2022-07-25T12:50:21.196Z,2.40
2022-07-25T12:52:58.318Z,2.58
2022-07-25T12:55:37.975Z,2.30
2022-07-25T12:58:15.588Z,2.47
2022-07-25T13:00:52.489Z,2.55
2022-07-25T13:03:29.645Z,2.65
2022-07-25T13:06:07.677Z,2.13
2022-07-25T13:08:44.768Z,2.60
2022-07-25T13:11:24.247Z,2.30
2022-07-25T13:14:01.456Z,2.55
2022-07-25T13:16:39.302Z,2.63
2022-07-25T13:19:17.517Z,2.35
2022-07-25T13:21:54.325Z,2.33
2022-07-25T13:24:31.581Z,2.30
2022-07-25T13:27:11.942Z,2.10
2022-07-25T13:29:54.671Z,2.28
2022-07-25T13:32:32.168Z,2.20
2022-07-25T13:35:11.187Z,2.20
2022-07-25T13:37:48.150Z,2.58
2022-07-25T13:40:25.489Z,2.33
2022-07-25T13:43:04.891Z,2.30
2022-07-25T13:45:42.678Z,2.10
2022-07-25T13:48:29.563Z,2.30
2022-07-25T13:51:08.004Z,2.08
2022-07-25T13:53:45.231Z,2.28
2022-07-25T13:56:22.405Z,1.80
2022-07-25T13:59:01.837Z,1.88
2022-07-25T14:01:39.215Z,1.90
2022-07-25T14:04:16.277Z,2.10
2022-07-25T14:06:54.990Z,1.80
2022-07-25T14:09:31.796Z,1.95
2022-07-25T14:12:09.758Z,2.05
2022-07-25T14:14:49.270Z,1.70
2022-07-25T14:17:30.118Z,1.95
2022-07-25T14:20:08.527Z,1.90
2022-07-25T14:22:46.055Z,1.80
2022-07-25T14:25:23.131Z,2.20
2022-07-25T14:28:00.438Z,2.22
2022-07-25T14:30:39.860Z,2.30
2022-07-25T14:33:17.281Z,2.20
2022-07-25T14:35:54.174Z,2.17
2022-07-25T14:38:31.322Z,2.13
2022-07-25T14:41:12.828Z,1.83
2022-07-25T14:43:50.402Z,2.08
2022-07-25T14:46:30.375Z,2.00
2022-07-25T14:49:09.005Z,2.00
2022-07-25T14:51:47.342Z,2.60
2022-07-25T14:54:26.163Z,1.90
2022-07-25T14:57:04.839Z,2.00
2022-07-25T14:59:42.050Z,2.25
2022-07-25T15:02:21.571Z,2.40
2022-07-25T15:04:59.035Z,2.42
2022-07-25T15:07:36.561Z,2.03
2022-07-25T15:10:14.761Z,2.20
2022-07-25T15:13:07.872Z,2.50
2022-07-25T15:15:49.885Z,2.25
2022-07-25T15:18:30.294Z,2.45
2022-07-25T15:21:08.126Z,2.30
2022-07-25T15:23:45.842Z,2.30
2022-07-25T15:26:23.874Z,2.38
2022-07-25T15:29:01.184Z,2.33
2022-07-25T15:31:38.508Z,2.20
2022-07-25T15:34:18.083Z,2.20
2022-07-25T15:36:55.432Z,2.17
2022-07-25T15:39:32.178Z,2.30
2022-07-25T15:42:09.861Z,1.85
2022-07-25T15:44:46.638Z,2.05
2022-07-25T15:47:23.699Z,2.10
2022-07-25T15:50:03.190Z,2.25
2022-07-25T15:52:40.448Z,2.30
2022-07-25T15:55:17.221Z,2.10
2022-07-25T15:57:55.978Z,2.25
2022-07-25T16:00:33.026Z,2.20
2022-07-25T16:03:11.518Z,2.40
2022-07-25T16:05:50.958Z,2.28
2022-07-25T16:08:28.133Z,2.13
2022-07-25T16:11:04.938Z,2.00
2022-07-25T16:13:42.319Z,1.92
2022-07-25T16:16:22.305Z,2.10
2022-07-25T16:19:00.459Z,2.30
2022-07-25T16:21:40.298Z,1.92
2022-07-25T16:24:17.478Z,2.08
2022-07-25T16:26:54.437Z,1.75
2022-07-25T16:29:31.555Z,2.05
2022-07-25T16:32:10.050Z,2.20
2022-07-25T16:34:47.649Z,2.00
2022-07-25T16:37:27.647Z,2.00
2022-07-25T16:40:05.032Z,2.35
2022-07-25T16:42:41.800Z,1.90
2022-07-25T16:45:18.938Z,1.73
2022-07-25T16:47:55.715Z,2.03
2022-07-25T16:50:32.818Z,1.90
2022-07-25T16:53:12.228Z,1.92
2022-07-25T16:55:49.313Z,1.95
2022-07-25T16:58:26.058Z,1.80
2022-07-25T17:01:03.117Z,1.92
2022-07-25T17:03:40.079Z,2.05
2022-07-25T17:06:17.401Z,1.92
2022-07-25T17:08:57.268Z,2.00
2022-07-25T17:11:35.027Z,2.15
2022-07-25T17:14:12.614Z,1.90
2022-07-25T17:16:51.828Z,1.90
2022-07-25T17:19:29.373Z,1.92
2022-07-25T17:22:06.760Z,1.70
2022-07-25T17:24:46.832Z,2.20
2022-07-25T17:27:24.150Z,1.90
2022-07-25T17:30:02.529Z,1.90
2022-07-25T17:32:40.219Z,1.90
2022-07-25T17:35:17.048Z,2.20
2022-07-25T17:37:54.302Z,1.98
2022-07-25T17:40:33.799Z,1.83
2022-07-25T17:43:10.874Z,2.00
2022-07-25T17:45:47.769Z,1.80
2022-07-25T17:48:24.847Z,1.95
2022-07-25T17:51:01.726Z,2.10
2022-07-25T17:53:38.977Z,2.10
2022-07-25T17:56:18.337Z,2.15
2022-07-25T17:58:55.470Z,2.05
2022-07-25T18:01:32.496Z,2.28
2022-07-25T18:04:10.163Z,2.10
2022-07-25T18:06:47.118Z,2.10
2022-07-25T18:09:27.888Z,2.13
2022-07-25T18:12:08.069Z,2.13
2022-07-25T18:14:45.220Z,2.08
2022-07-25T18:17:21.971Z,2.03
2022-07-25T18:19:59.107Z,2.00
2022-07-25T18:22:35.831Z,2.10
2022-07-25T18:25:15.420Z,2.20
2022-07-25T18:27:54.811Z,2.25
2022-07-25T18:30:32.220Z,2.40
2022-07-25T18:33:09.183Z,2.65
2022-07-25T18:35:46.400Z,2.28
2022-07-25T18:38:23.619Z,2.28
2022-07-25T18:41:26.284Z,2.30
2022-07-25T18:44:01.369Z,2.20
2022-07-25T18:46:39.147Z,2.00
2022-07-25T18:49:18.046Z,2.28
2022-07-25T18:51:55.099Z,2.45
2022-07-25T18:54:31.998Z,2.40
2022-07-25T18:57:09.666Z,2.22
2022-07-25T18:59:49.266Z,2.50
2022-07-25T19:02:26.817Z,3.30
2022-07-25T19:05:03.754Z,2.72
2022-07-25T19:07:40.834Z,2.30
2022-07-25T19:10:17.767Z,2.75
2022-07-25T19:12:54.897Z,2.70
2022-07-25T19:15:34.630Z,2.90
2022-07-25T19:18:11.644Z,2.90
2022-07-25T19:20:48.377Z,2.75
2022-07-25T19:23:25.417Z,2.97
2022-07-25T19:26:02.329Z,2.60
2022-07-25T19:28:39.879Z,2.95
2022-07-25T19:31:19.792Z,2.78
2022-07-25T19:33:57.027Z,2.83
2022-07-25T19:36:33.777Z,3.10
2022-07-25T19:39:11.909Z,2.72
2022-07-25T19:41:48.797Z,3.08
2022-07-25T19:44:25.934Z,3.10
2022-07-25T19:47:11.260Z,3.10
2022-07-25T19:49:48.852Z,3.28
2022-07-25T19:52:25.638Z,2.70
2022-07-25T19:55:03.293Z,3.20
2022-07-25T19:57:40.921Z,2.90
2022-07-25T20:00:19.207Z,2.80
2022-07-25T20:02:58.925Z,2.95
2022-07-25T20:05:36.424Z,2.67
2022-07-25T20:08:13.277Z,2.80
2022-07-25T20:10:50.615Z,3.10
2022-07-25T20:13:28.324Z,2.80
2022-07-25T20:16:06.174Z,2.90
2022-07-25T20:18:45.889Z,2.80
2022-07-25T20:21:23.227Z,3.15
2022-07-25T20:24:00.834Z,3.03
2022-07-25T20:26:37.966Z,3.20
2022-07-25T20:29:15.004Z,3.08
2022-07-25T20:31:53.094Z,2.90
2022-07-25T20:34:33.112Z,3.00
2022-07-25T20:37:10.365Z,3.33
2022-07-25T20:39:48.239Z,3.17
2022-07-25T20:42:26.074Z,3.42
2022-07-25T20:45:03.228Z,2.88
2022-07-25T20:47:40.496Z,3.38
2022-07-25T20:50:20.325Z,3.10
2022-07-25T20:52:57.996Z,3.05
2022-07-25T20:55:34.782Z,2.72
2022-07-25T20:58:12.184Z,3.17
2022-07-25T21:00:49.353Z,3.03
2022-07-25T21:03:26.554Z,2.88
2022-07-25T21:06:06.120Z,3.08
2022-07-25T21:08:43.595Z,3.55
2022-07-25T21:11:20.625Z,3.53
2022-07-25T21:13:58.555Z,3.50
2022-07-25T21:16:36.302Z,3.15
2022-07-25T21:19:13.445Z,3.00
2022-07-25T21:21:53.792Z,3.10
2022-07-25T21:24:30.918Z,3.05
2022-07-25T21:27:07.925Z,3.03
2022-07-25T21:29:45.122Z,3.00
2022-07-25T21:32:23.541Z,2.95
2022-07-25T21:35:00.858Z,2.90
2022-07-25T21:37:40.479Z,3.03
2022-07-25T21:40:18.079Z,3.15
2022-07-25T21:42:55.072Z,3.00
2022-07-25T21:45:32.339Z,3.20
2022-07-25T21:48:10.455Z,3.28
2022-07-25T21:50:46.138Z,2.70
